createdAt,value
2023-03-27T10:21:58.494Z,0.50
2023-03-27T10:25:59.137Z,0.34
2023-03-27T10:29:58.461Z,0.34
2023-03-27T10:33:58.000Z,0.34
2023-03-27T10:37:56.997Z,0.34
2023-03-27T10:41:56.561Z,0.34
2023-03-27T10:45:55.383Z,0.34
2023-03-27T10:49:54.972Z,0.34
2023-03-27T10:53:54.072Z,0.34
2023-03-27T10:57:53.472Z,0.34
2023-03-27T11:01:52.800Z,0.34
2023-03-27T11:05:51.973Z,0.34
2023-03-27T11:09:51.037Z,0.51
2023-03-27T11:13:50.513Z,0.50
2023-03-27T11:17:49.570Z,0.56
2023-03-27T11:21:48.680Z,0.57
2023-03-27T11:25:48.065Z,0.54
2023-03-27T11:29:47.480Z,0.50
2023-03-27T11:33:46.486Z,0.50
2023-03-27T11:37:45.986Z,0.57
2023-03-27T11:41:44.850Z,0.52
2023-03-27T11:45:44.496Z,0.54
2023-03-27T11:49:43.516Z,0.60
2023-03-27T11:53:42.568Z,0.66
2023-03-27T11:57:42.044Z,0.76
2023-03-27T12:01:41.025Z,0.87
2023-03-27T12:05:40.528Z,0.84
2023-03-27T12:09:40.048Z,0.78
2023-03-27T12:13:42.404Z,0.79
2023-03-27T12:17:38.541Z,0.78
2023-03-27T12:21:37.505Z,0.80
2023-03-27T12:25:37.033Z,0.83
2023-03-27T12:29:36.533Z,0.85
2023-03-27T12:33:36.003Z,0.79
2023-03-27T12:37:35.983Z,0.81
2023-03-27T12:41:34.506Z,0.76
2023-03-27T12:45:38.813Z,0.73
2023-03-27T12:49:46.345Z,0.74
2023-03-27T12:53:32.531Z,0.75
2023-03-27T12:57:31.480Z,0.70
2023-03-27T13:01:36.303Z,0.76
2023-03-27T13:05:30.035Z,0.73
2023-03-27T13:09:29.546Z,0.65
2023-03-27T13:13:28.276Z,0.80
2023-03-27T13:17:27.570Z,0.64
2023-03-27T13:21:27.027Z,0.67
2023-03-27T13:25:26.047Z,0.62
2023-03-27T13:29:25.572Z,0.65
2023-03-27T13:33:24.556Z,0.72
2023-03-27T13:37:24.027Z,0.60
2023-03-27T13:41:23.532Z,0.61
2023-03-27T13:45:22.533Z,0.67
2023-03-27T13:49:22.078Z,0.61
2023-03-27T13:53:23.171Z,0.61
2023-03-27T15:45:00.771Z,1.05
2023-03-27T18:56:32.091Z,1.49
2023-03-27T19:04:30.923Z,1.48
2023-03-27T19:08:31.377Z,1.44
2023-03-27T19:12:30.803Z,1.44
2023-03-27T19:16:30.244Z,1.44
2023-03-27T19:20:29.661Z,1.43
2023-03-27T19:24:29.137Z,1.45
2023-03-27T19:28:28.588Z,1.44
2023-03-27T19:32:28.067Z,1.42
2023-03-27T19:36:27.494Z,1.46
2023-03-27T19:40:27.004Z,1.41
2023-03-27T19:44:26.432Z,1.44
2023-03-27T19:48:25.927Z,1.45
2023-03-27T19:52:25.379Z,1.47
2023-03-27T19:56:24.872Z,1.44
2023-03-27T20:00:24.314Z,1.46
2023-03-27T20:04:23.791Z,1.44
2023-03-27T20:08:23.264Z,1.44
2023-03-27T20:12:22.745Z,1.42
2023-03-27T20:16:22.243Z,1.44
2023-03-27T20:20:21.714Z,1.43
2023-03-27T20:24:21.212Z,1.42
2023-03-27T20:28:20.749Z,1.45
2023-03-27T20:32:20.229Z,1.43
2023-03-27T20:36:19.800Z,1.43
2023-03-27T20:40:19.259Z,1.42
2023-03-27T20:44:18.879Z,1.43
2023-03-27T20:48:18.376Z,1.44
2023-03-27T20:52:17.855Z,1.38
2023-03-27T20:56:17.393Z,1.43
2023-03-27T21:00:16.960Z,1.42
2023-03-27T21:04:16.490Z,1.43
2023-03-27T21:08:15.985Z,1.43
2023-03-27T21:12:15.551Z,1.44
2023-03-27T21:16:15.253Z,1.44
2023-03-27T21:20:14.688Z,1.40
2023-03-27T21:24:14.297Z,1.44
2023-03-27T21:28:13.808Z,1.43
2023-03-27T21:32:13.427Z,1.44
2023-03-27T21:36:13.123Z,1.43
2023-03-27T21:40:12.565Z,1.43
2023-03-27T21:44:12.032Z,1.42
2023-03-27T21:48:11.643Z,1.42
2023-03-27T21:52:11.164Z,1.45
2023-03-27T21:56:10.817Z,1.43
2023-03-27T22:00:10.352Z,1.43
2023-03-27T22:04:09.943Z,1.40
2023-03-27T22:08:09.536Z,1.42
2023-03-27T22:12:09.131Z,1.39
2023-03-27T22:16:08.971Z,1.39
2023-03-27T22:20:08.365Z,1.37
2023-03-27T22:24:08.010Z,1.38
2023-03-27T22:28:07.557Z,1.35
2023-03-27T22:32:07.162Z,1.35
2023-03-27T22:36:06.928Z,1.34
2023-03-27T22:40:06.420Z,1.36
2023-03-27T22:44:05.989Z,1.36
2023-03-27T22:48:05.789Z,1.38
2023-03-27T22:52:05.285Z,1.35
2023-03-27T22:56:04.890Z,1.36
2023-03-27T23:00:04.463Z,1.33
